Time;durP1;ratioP1;P1;durP2;ratioP2;P2;SDS_P1;SDS_P2;PMS_P1;PMS_P2;Temp;Humidity;BMP_temperature;BMP_pressure;BME280_temperature;BME280_humidity;BME280_pressure;Samples;Min_cycle;Max_cycle;Signal;HPM_P1;HPM_P2
2021/05/05 00:00:18;;;;;;;71.85;66.55;;;16.30;99.90;;;;;;5071915;28;20078;-64
2021/05/05 00:02:46;;;;;;;68.78;63.67;;;16.40;99.90;;;;;;5072282;28;20050;-64
2021/05/05 00:05:20;;;;;;;67.18;61.95;;;16.40;99.90;;;;;;5073093;28;20435;-64
2021/05/05 00:08:01;;;;;;;;;;;;;;;;;;;;;
2021/05/05 00:16:55;;;;;;;65.75;60.72;;;16.60;99.90;;;;;;5073424;28;20112;-64
2021/05/05 00:19:24;;;;;;;68.78;63.70;;;16.70;99.90;;;;;;5073111;28;20405;-64
2021/05/05 00:21:51;;;;;;;68.72;63.22;;;16.70;99.90;;;;;;5072958;28;20399;-65
2021/05/05 00:24:18;;;;;;;68.80;63.10;;;16.70;99.90;;;;;;5072924;28;20419;-65
2021/05/05 00:27:08;;;;;;;68.20;62.97;;;16.90;99.90;;;;;;5072976;28;20103;-64
2021/05/05 00:29:42;;;;;;;67.35;62.35;;;16.90;99.90;;;;;;5073024;28;20070;-64
2021/05/05 00:32:23;;;;;;;;;;;;;;;;;;;;;
2021/05/05 00:39:06;;;;;;;68.38;63.35;;;17.10;99.90;;;;;;5031287;28;20100;-64
2021/05/05 00:41:54;;;;;;;65.90;61.05;;;17.10;99.90;;;;;;5020946;28;20033;-66
2021/05/05 00:44:23;;;;;;;68.20;62.65;;;17.10;99.90;;;;;;5031170;28;20040;-66
2021/05/05 00:47:34;;;;;;;65.03;60.30;;;17.10;99.90;;;;;;5030609;28;20117;-62
2021/05/05 00:50:01;;;;;;;;;;;17.20;99.90;;;;;;5059828;28;20474;-60
2021/05/05 00:52:28;;;;;;;65.22;60.33;;;17.50;99.90;;;;;;5072500;28;19909;-59
2021/05/05 00:54:56;;;;;;;64.82;60.05;;;17.50;99.90;;;;;;5072614;28;20021;-59
2021/05/05 00:57:23;;;;;;;65.55;59.67;;;17.60;99.90;;;;;;5072573;28;20103;-59
2021/05/05 00:59:52;;;;;;;66.40;61.58;;;17.90;99.90;;;;;;5072506;28;20020;-59
2021/05/05 01:02:20;;;;;;;60.63;56.28;;;18.00;99.90;;;;;;5072362;28;20124;-60
2021/05/05 01:04:48;;;;;;;60.80;56.47;;;17.90;99.90;;;;;;5072282;28;20108;-59
2021/05/05 01:07:15;;;;;;;59.22;55.10;;;18.00;99.90;;;;;;5072354;28;20048;-59
2021/05/05 01:09:47;;;;;;;60.70;56.25;;;18.10;99.90;;;;;;5072452;28;20078;-59
2021/05/05 01:12:16;;;;;;;61.17;56.90;;;18.20;99.90;;;;;;5072514;28;20063;-59
2021/05/05 01:14:44;;;;;;;61.22;56.85;;;18.00;99.90;;;;;;5076029;28;20504;-59
2021/05/05 01:17:12;;;;;;;61.78;57.40;;;18.00;99.90;;;;;;5076182;28;20059;-59
2021/05/05 01:19:39;;;;;;;64.60;60.13;;;18.10;99.90;;;;;;5075958;28;20056;-59
2021/05/05 01:22:06;;;;;;;63.35;58.55;;;18.10;99.90;;;;;;5076180;28;20078;-59
2021/05/05 01:24:35;;;;;;;62.95;58.55;;;18.20;99.90;;;;;;5075944;28;20059;-59
2021/05/05 01:27:06;;;;;;;61.58;57.38;;;18.20;99.90;;;;;;5074707;28;20104;-59
2021/05/05 01:29:35;;;;;;;63.05;58.60;;;18.30;99.90;;;;;;5076081;28;20053;-60
2021/05/05 01:32:04;;;;;;;59.88;55.88;;;18.30;99.90;;;;;;5075846;28;20020;-59
2021/05/05 01:34:32;;;;;;;59.60;55.33;;;18.50;99.90;;;;;;5075825;28;20025;-59
2021/05/05 01:37:00;;;;;;;59.05;54.95;;;18.70;99.90;;;;;;5075689;28;20175;-59
2021/05/05 01:39:27;;;;;;;59.15;54.95;;;18.70;99.90;;;;;;5075748;28;20620;-59
2021/05/05 01:41:55;;;;;;;60.15;56.15;;;18.70;99.90;;;;;;5075530;28;20076;-59
2021/05/05 01:44:37;;;;;;;61.90;57.78;;;18.50;99.90;;;;;;5075590;28;20077;-58
2021/05/05 01:47:14;;;;;;;68.97;64.50;;;18.20;99.90;;;;;;5075618;28;20441;-59
2021/05/05 01:49:47;;;;;;;67.88;63.28;;;18.10;99.90;;;;;;5075664;28;20077;-58
2021/05/05 01:52:16;;;;;;;65.45;60.95;;;17.80;99.90;;;;;;5075580;28;20455;-59
2021/05/05 01:54:44;;;;;;;69.72;64.82;;;17.50;99.90;;;;;;5075503;28;20020;-60
2021/05/05 01:57:22;;;;;;;68.95;64.15;;;17.40;99.90;;;;;;5075678;28;20025;-60
2021/05/05 01:59:51;;;;;;;69.15;64.25;;;17.20;99.90;;;;;;5075550;28;20119;-62
2021/05/05 02:02:18;;;;;;;69.20;64.30;;;17.30;99.90;;;;;;5074155;28;20036;-59
2021/05/05 02:04:45;;;;;;;66.78;61.90;;;17.30;99.90;;;;;;5075301;28;20069;-60
2021/05/05 02:07:13;;;;;;;67.88;63.08;;;17.70;99.90;;;;;;5075426;28;20069;-60
2021/05/05 02:09:40;;;;;;;69.78;64.88;;;17.80;99.90;;;;;;5073955;28;20123;-60
2021/05/05 02:12:09;;;;;;;66.82;62.03;;;18.10;99.90;;;;;;5075342;28;20384;-59
2021/05/05 02:14:36;;;;;;;67.55;62.72;;;18.30;99.90;;;;;;5075028;28;20493;-59
2021/05/05 02:17:04;;;;;;;64.70;60.20;;;18.40;99.90;;;;;;5075039;28;20020;-59
2021/05/05 02:19:31;;;;;;;65.45;60.85;;;18.60;99.90;;;;;;5074962;28;20048;-59
2021/05/05 02:21:58;;;;;;;66.18;61.78;;;18.60;99.90;;;;;;5075126;28;20102;-59
2021/05/05 02:24:26;;;;;;;61.22;56.70;;;18.70;99.90;;;;;;5073785;28;20070;-59
2021/05/05 02:26:53;;;;;;;62.50;57.70;;;18.80;99.90;;;;;;5073749;28;20033;-60
2021/05/05 02:29:23;;;;;;;64.45;59.83;;;18.80;99.90;;;;;;5074837;28;20108;-60
2021/05/05 02:31:52;;;;;;;64.40;59.83;;;18.80;99.90;;;;;;5074847;28;20380;-59
2021/05/05 02:34:19;;;;;;;63.00;58.53;;;18.90;99.90;;;;;;5074620;28;20059;-59
2021/05/05 02:36:46;;;;;;;63.38;58.67;;;18.80;99.90;;;;;;5074678;28;20028;-59
2021/05/05 02:39:14;;;;;;;64.75;60.25;;;18.90;99.90;;;;;;5074631;28;20054;-59
2021/05/05 02:41:42;;;;;;;65.10;60.60;;;18.90;99.90;;;;;;5074349;28;20486;-59
2021/05/05 02:44:10;;;;;;;65.50;60.85;;;19.00;99.90;;;;;;5074453;28;20546;-59
2021/05/05 02:46:38;;;;;;;63.72;59.35;;;19.10;99.90;;;;;;5074261;28;20056;-59
2021/05/05 02:49:07;;;;;;;61.42;57.25;;;19.60;99.90;;;;;;5074380;28;20021;-59
2021/05/05 02:51:34;;;;;;;58.47;54.10;;;19.80;99.90;;;;;;5074222;28;20028;-59
2021/05/05 02:54:02;;;;;;;63.88;59.38;;;19.60;99.90;;;;;;5074365;28;20024;-60
2021/05/05 02:56:29;;;;;;;64.95;60.72;;;19.40;99.90;;;;;;5074104;28;20036;-59
2021/05/05 02:58:57;;;;;;;64.43;59.83;;;19.30;99.90;;;;;;5074120;28;20027;-59
2021/05/05 03:01:24;;;;;;;62.92;58.85;;;19.60;99.90;;;;;;5072710;28;20035;-59
2021/05/05 03:03:52;;;;;;;64.70;60.30;;;19.70;99.90;;;;;;5073899;28;20024;-60
2021/05/05 03:06:19;;;;;;;63.20;59.05;;;20.00;99.90;;;;;;5073932;28;20027;-59
2021/05/05 03:08:47;;;;;;;60.80;56.38;;;20.20;99.90;;;;;;5074035;28;20016;-59
2021/05/05 03:11:14;;;;;;;65.95;61.35;;;19.70;99.90;;;;;;5073942;28;20024;-60
2021/05/05 03:13:42;;;;;;;65.93;61.63;;;19.40;99.90;;;;;;5073738;28;20020;-59
2021/05/05 03:16:09;;;;;;;63.83;59.78;;;19.10;99.90;;;;;;5073758;28;20048;-59
2021/05/05 03:18:37;;;;;;;66.00;61.70;;;19.00;99.90;;;;;;5072540;28;20025;-59
2021/05/05 03:21:04;;;;;;;64.20;60.10;;;18.80;99.90;;;;;;5073785;28;20028;-60
2021/05/05 03:23:32;;;;;;;65.32;60.72;;;18.60;99.90;;;;;;5073579;28;20028;-59
2021/05/05 03:25:59;;;;;;;62.63;58.42;;;18.70;99.90;;;;;;5073662;28;20055;-59
2021/05/05 03:28:26;;;;;;;63.40;59.08;;;18.60;99.90;;;;;;5073584;28;20059;-59
2021/05/05 03:30:54;;;;;;;63.70;59.20;;;18.80;99.90;;;;;;5073561;28;20025;-60
2021/05/05 03:33:21;;;;;;;63.75;59.35;;;19.00;99.90;;;;;;5073535;28;20013;-59
2021/05/05 03:35:48;;;;;;;62.10;57.60;;;19.00;99.90;;;;;;5073313;28;20385;-59
2021/05/05 03:38:16;;;;;;;62.85;58.40;;;19.20;99.90;;;;;;5073453;28;20032;-61
2021/05/05 03:40:43;;;;;;;63.67;59.03;;;19.20;99.90;;;;;;5073453;28;20048;-61
2021/05/05 03:43:10;;;;;;;61.63;57.05;;;19.30;99.90;;;;;;5073225;28;20405;-59
2021/05/05 03:45:38;;;;;;;62.38;57.80;;;19.10;99.90;;;;;;5073303;28;20029;-58
2021/05/05 03:48:06;;;;;;;61.92;57.58;;;18.80;99.90;;;;;;5073466;28;20500;-59
2021/05/05 03:50:34;;;;;;;63.55;58.95;;;18.80;99.90;;;;;;5073503;28;20013;-59
2021/05/05 03:53:02;;;;;;;62.33;57.75;;;19.10;99.90;;;;;;5073194;28;20020;-59
2021/05/05 03:55:30;;;;;;;64.00;59.70;;;19.20;99.90;;;;;;5073331;28;20032;-60
2021/05/05 03:57:57;;;;;;;60.75;56.63;;;19.30;99.90;;;;;;5073330;28;20081;-60
2021/05/05 04:00:25;;;;;;;58.45;54.45;;;19.20;99.90;;;;;;5073177;28;20016;-60
2021/05/05 04:02:52;;;;;;;58.97;54.83;;;19.20;99.90;;;;;;5073107;28;20524;-59
2021/05/05 04:05:20;;;;;;;59.33;55.42;;;19.10;99.90;;;;;;5073130;28;20048;-59
2021/05/05 04:07:47;;;;;;;64.60;60.38;;;19.20;99.90;;;;;;5073086;28;20024;-61
2021/05/05 04:10:15;;;;;;;61.42;57.30;;;19.40;99.90;;;;;;5073087;28;20032;-60
2021/05/05 04:12:42;;;;;;;60.42;56.53;;;19.60;99.90;;;;;;5072147;28;20028;-60
2021/05/05 04:15:10;;;;;;;60.15;56.25;;;19.70;99.90;;;;;;5073273;28;20027;-57
2021/05/05 04:17:37;;;;;;;59.92;55.72;;;19.80;99.90;;;;;;5072940;28;20028;-60
2021/05/05 04:20:05;;;;;;;60.00;55.92;;;19.90;99.90;;;;;;5073070;28;20499;-57
2021/05/05 04:22:33;;;;;;;62.35;58.22;;;19.80;99.90;;;;;;5072935;28;20099;-60
2021/05/05 04:25:00;;;;;;;60.67;56.40;;;19.80;99.90;;;;;;5072922;28;20052;-60
2021/05/05 04:27:28;;;;;;;61.17;57.25;;;19.50;99.90;;;;;;5072922;28;20099;-60
2021/05/05 04:29:55;;;;;;;61.58;57.47;;;19.50;99.90;;;;;;5072923;28;20053;-59
2021/05/05 04:32:23;;;;;;;60.22;56.33;;;19.60;99.90;;;;;;5072984;28;20013;-57
2021/05/05 04:34:50;;;;;;;56.88;53.30;;;19.70;99.90;;;;;;5073037;28;20104;-57
2021/05/05 04:37:18;;;;;;;58.42;54.72;;;19.60;99.90;;;;;;5072937;28;20481;-58
2021/05/05 04:39:45;;;;;;;58.33;54.53;;;19.60;99.90;;;;;;5072871;28;20024;-58
2021/05/05 04:42:13;;;;;;;56.83;53.13;;;19.60;99.90;;;;;;5072585;28;20036;-57
2021/05/05 04:44:40;;;;;;;53.22;49.97;;;19.60;99.90;;;;;;5072707;28;20036;-57
2021/05/05 04:47:07;;;;;;;56.05;52.53;;;19.30;99.90;;;;;;5071579;28;20556;-58
2021/05/05 04:49:35;;;;;;;52.40;49.15;;;19.40;99.90;;;;;;5076330;28;20148;-59
2021/05/05 04:52:02;;;;;;;54.35;50.88;;;19.50;99.90;;;;;;5076544;28;20016;-56
2021/05/05 04:54:29;;;;;;;53.97;50.67;;;19.60;99.90;;;;;;5076385;28;20028;-58
2021/05/05 04:56:57;;;;;;;54.47;50.88;;;19.60;99.90;;;;;;5076636;28;20020;-57
2021/05/05 04:59:24;;;;;;;55.22;51.47;;;19.50;99.90;;;;;;5075223;28;20036;-57
2021/05/05 05:01:51;;;;;;;56.28;52.53;;;19.40;99.90;;;;;;5076400;28;20021;-58
2021/05/05 05:04:19;;;;;;;52.50;48.88;;;19.20;99.90;;;;;;5076262;28;20029;-57
2021/05/05 05:06:46;;;;;;;56.80;53.10;;;19.00;99.90;;;;;;5076318;28;20013;-57
2021/05/05 05:09:13;;;;;;;55.35;51.85;;;18.90;99.90;;;;;;5076261;28;20377;-58
2021/05/05 05:11:41;;;;;;;56.92;53.42;;;18.80;99.90;;;;;;5076247;28;20100;-58
2021/05/05 05:14:08;;;;;;;58.50;54.58;;;18.80;99.90;;;;;;5076098;28;20059;-57
2021/05/05 05:16:35;;;;;;;58.40;54.50;;;18.60;99.90;;;;;;5076157;28;20077;-58
2021/05/05 05:19:05;;;;;;;56.10;52.40;;;18.40;99.90;;;;;;5074878;28;20428;-58
2021/05/05 05:21:33;;;;;;;56.97;52.95;;;18.40;99.90;;;;;;5076017;28;20017;-58
2021/05/05 05:24:00;;;;;;;59.35;55.22;;;18.30;99.90;;;;;;5075996;28;20093;-58
2021/05/05 05:26:27;;;;;;;59.70;55.60;;;18.20;99.90;;;;;;5075845;28;20109;-58
2021/05/05 05:28:55;;;;;;;57.35;53.25;;;18.30;99.90;;;;;;5075809;28;20539;-58
2021/05/05 05:31:22;;;;;;;56.28;52.28;;;18.30;99.90;;;;;;5075817;28;20025;-57
2021/05/05 05:33:50;;;;;;;58.70;54.63;;;18.30;99.90;;;;;;5074592;28;20020;-59
2021/05/05 05:36:17;;;;;;;59.45;55.42;;;18.30;99.90;;;;;;5075659;28;20496;-58
2021/05/05 05:38:45;;;;;;;56.53;52.70;;;18.30;99.90;;;;;;5075622;28;20134;-59
2021/05/05 05:41:12;;;;;;;56.10;52.22;;;18.30;99.90;;;;;;5075663;28;20050;-58
2021/05/05 05:43:40;;;;;;;54.17;50.58;;;18.20;99.90;;;;;;5075453;28;20045;-58
2021/05/05 05:46:07;;;;;;;54.38;50.45;;;18.20;99.90;;;;;;5075685;28;20024;-59
2021/05/05 05:48:35;;;;;;;56.95;53.25;;;18.20;99.90;;;;;;5075603;28;20029;-59
2021/05/05 05:51:02;;;;;;;58.97;54.90;;;18.10;99.90;;;;;;5075393;28;20542;-59
2021/05/05 05:53:29;;;;;;;60.75;56.42;;;18.10;99.90;;;;;;5075402;28;20066;-59
2021/05/05 05:55:57;;;;;;;58.25;54.15;;;18.20;99.90;;;;;;5075308;28;20420;-59
2021/05/05 05:58:24;;;;;;;56.13;52.22;;;18.20;99.90;;;;;;5075291;28;20020;-59
2021/05/05 06:00:51;;;;;;;53.28;49.83;;;18.20;99.90;;;;;;5075530;28;20047;-59
2021/05/05 06:03:18;;;;;;;53.72;50.03;;;18.20;99.90;;;;;;5075143;28;20377;-58
2021/05/05 06:05:46;;;;;;;54.70;50.78;;;18.20;99.90;;;;;;5075339;28;20025;-60
2021/05/05 06:08:14;;;;;;;57.22;53.20;;;18.10;99.90;;;;;;5075304;28;20539;-59
2021/05/05 06:10:42;;;;;;;59.25;54.88;;;18.10;99.90;;;;;;5075602;28;20021;-59
2021/05/05 06:13:09;;;;;;;60.05;55.65;;;18.10;99.90;;;;;;5075030;28;20073;-59
2021/05/05 06:15:36;;;;;;;60.72;56.60;;;18.10;99.90;;;;;;5075042;28;20017;-59
2021/05/05 06:18:06;;;;;;;60.47;56.17;;;18.10;99.90;;;;;;5074986;28;20435;-59
2021/05/05 06:20:34;;;;;;;57.33;53.33;;;18.10;99.90;;;;;;5073666;28;20110;-60
2021/05/05 06:23:01;;;;;;;57.90;53.83;;;18.00;99.90;;;;;;5074795;28;20366;-58
2021/05/05 06:25:29;;;;;;;56.63;52.35;;;18.10;99.90;;;;;;5074737;28;20116;-59
2021/05/05 06:27:56;;;;;;;58.80;54.60;;;18.00;99.90;;;;;;5073521;28;20400;-58
2021/05/05 06:30:24;;;;;;;59.55;55.40;;;18.00;99.90;;;;;;5074826;28;20023;-59
2021/05/05 06:32:51;;;;;;;58.53;54.38;;;18.00;99.90;;;;;;5074730;28;20052;-58
2021/05/05 06:35:19;;;;;;;57.45;53.35;;;18.00;99.90;;;;;;5074578;28;20082;-58
2021/05/05 06:37:46;;;;;;;57.22;53.10;;;18.00;99.90;;;;;;5074665;28;20385;-59
2021/05/05 06:40:14;;;;;;;58.15;54.20;;;18.00;99.90;;;;;;5074617;28;20384;-58
2021/05/05 06:42:42;;;;;;;55.70;51.80;;;18.00;99.90;;;;;;5073090;28;20404;-59
2021/05/05 06:45:10;;;;;;;58.28;54.13;;;18.00;99.90;;;;;;5074291;28;20542;-60
2021/05/05 06:47:38;;;;;;;58.30;54.03;;;18.00;99.90;;;;;;5074461;28;20370;-58
2021/05/05 06:50:10;;;;;;;57.97;53.47;;;18.00;99.90;;;;;;5074282;28;20149;-58
2021/05/05 06:52:38;;;;;;;56.85;52.38;;;17.90;99.90;;;;;;5074229;28;20198;-59
2021/05/05 06:55:06;;;;;;;58.08;53.88;;;17.90;99.90;;;;;;5074119;28;20023;-58
2021/05/05 06:57:35;;;;;;;59.67;55.20;;;17.90;99.90;;;;;;5074524;28;20024;-59
2021/05/05 07:00:04;;;;;;;59.97;55.55;;;17.80;99.90;;;;;;5074210;28;20036;-58
2021/05/05 07:02:32;;;;;;;60.90;56.22;;;17.80;99.90;;;;;;5073124;28;20025;-58
2021/05/05 07:04:59;;;;;;;61.80;57.08;;;17.70;99.90;;;;;;5074016;28;20107;-58
2021/05/05 07:07:29;;;;;;;61.90;57.00;;;17.70;99.90;;;;;;5073939;28;20382;-58
2021/05/05 07:09:57;;;;;;;63.40;58.47;;;17.70;99.90;;;;;;5074142;28;20096;-59
2021/05/05 07:12:25;;;;;;;63.28;58.60;;;17.60;99.90;;;;;;5073559;28;20035;-59
2021/05/05 07:14:53;;;;;;;61.13;56.30;;;17.60;99.90;;;;;;5073721;28;20028;-59
2021/05/05 07:17:20;;;;;;;62.13;57.25;;;17.60;99.90;;;;;;5073565;28;20037;-58
2021/05/05 07:19:53;;;;;;;62.35;57.35;;;17.50;99.90;;;;;;5073633;28;20028;-58
2021/05/05 07:22:21;;;;;;;62.28;57.47;;;17.50;99.90;;;;;;5073588;28;20115;-59
2021/05/05 07:24:49;;;;;;;60.92;55.97;;;17.50;99.90;;;;;;5073429;28;20108;-60
2021/05/05 07:27:17;;;;;;;56.83;52.20;;;17.40;99.90;;;;;;5073427;28;20491;-58
2021/05/05 07:29:45;;;;;;;57.97;53.28;;;17.50;99.90;;;;;;5072121;28;20024;-59
2021/05/05 07:32:12;;;;;;;58.47;53.63;;;17.50;99.90;;;;;;5073522;28;20017;-59
2021/05/05 07:34:41;;;;;;;60.35;55.65;;;17.50;99.90;;;;;;5073401;28;20044;-59
2021/05/05 07:37:15;;;;;;;60.30;55.75;;;17.50;99.90;;;;;;5073356;28;20037;-60
2021/05/05 07:45:31;;;;;;;;;;;;;;;;;;;;;
2021/05/05 07:48:03;;;;;;;58.50;53.60;;;17.40;99.90;;;;;;5073480;28;20154;-58
2021/05/05 07:50:30;;;;;;;63.33;58.33;;;17.40;99.90;;;;;;5073100;28;20094;-57
2021/05/05 07:52:58;;;;;;;62.20;57.20;;;17.40;99.90;;;;;;5073206;28;20116;-58
2021/05/05 07:55:25;;;;;;;62.83;58.17;;;17.40;99.90;;;;;;5073123;28;20059;-57
2021/05/05 07:57:53;;;;;;;59.92;55.50;;;17.40;99.90;;;;;;5073038;28;20085;-56
2021/05/05 08:00:21;;;;;;;56.58;52.08;;;17.40;99.90;;;;;;5071724;28;20085;-56
2021/05/05 08:02:48;;;;;;;57.13;52.30;;;17.30;99.90;;;;;;5073029;28;20039;-56
2021/05/05 08:05:16;;;;;;;54.50;50.13;;;17.30;99.90;;;;;;5072964;28;20538;-56
2021/05/05 08:07:43;;;;;;;53.85;49.35;;;17.30;99.90;;;;;;5073047;28;20066;-56
2021/05/05 08:10:12;;;;;;;53.30;48.50;;;17.30;99.90;;;;;;5072932;28;20052;-57
2021/05/05 08:12:40;;;;;;;52.92;48.58;;;17.30;99.90;;;;;;5071898;28;20070;-54
2021/05/05 08:15:08;;;;;;;53.17;48.40;;;17.20;99.90;;;;;;5073058;28;20161;-57
2021/05/05 08:17:35;;;;;;;48.92;44.70;;;17.20;99.90;;;;;;5072981;28;20063;-52
2021/05/05 08:20:04;;;;;;;53.28;48.58;;;17.20;99.90;;;;;;5072886;28;20040;-57
2021/05/05 08:22:32;;;;;;;50.75;46.55;;;17.20;99.90;;;;;;5070596;28;20025;-54
2021/05/05 08:24:59;;;;;;;49.97;45.75;;;17.30;99.90;;;;;;5072951;28;20056;-54
2021/05/05 08:27:27;;;;;;;52.00;46.95;;;17.20;99.90;;;;;;5073019;28;20013;-53
2021/05/05 08:29:54;;;;;;;50.03;45.40;;;17.20;99.90;;;;;;5072755;28;20086;-54
2021/05/05 08:32:22;;;;;;;49.20;45.05;;;17.20;99.90;;;;;;5072865;28;20027;-55
2021/05/05 08:34:49;;;;;;;50.90;46.88;;;17.20;99.90;;;;;;5072849;28;20028;-56
2021/05/05 08:37:17;;;;;;;49.65;45.70;;;17.30;99.90;;;;;;5072864;28;20059;-56
2021/05/05 08:39:44;;;;;;;51.65;47.33;;;17.30;99.90;;;;;;5072883;28;20051;-53
2021/05/05 08:42:12;;;;;;;49.42;45.55;;;17.40;99.90;;;;;;5072606;28;20036;-54
2021/05/05 08:44:43;;;;;;;50.67;46.58;;;17.40;99.90;;;;;;5072579;28;20040;-56
2021/05/05 08:47:10;;;;;;;51.85;47.63;;;17.40;99.90;;;;;;5072729;28;20021;-52
2021/05/05 08:49:38;;;;;;;52.40;48.08;;;17.40;99.90;;;;;;5072725;28;20397;-52
2021/05/05 08:52:05;;;;;;;49.10;45.00;;;17.40;99.90;;;;;;5072666;28;20020;-51
2021/05/05 08:54:33;;;;;;;51.50;47.60;;;17.40;99.90;;;;;;5072736;28;20070;-51
2021/05/05 08:57:00;;;;;;;51.28;47.17;;;17.30;99.90;;;;;;5071310;28;20078;-55
2021/05/05 08:59:28;;;;;;;49.33;45.25;;;17.30;99.90;;;;;;5072511;28;20059;-56
2021/05/05 09:01:55;;;;;;;50.03;46.13;;;17.30;99.90;;;;;;5072388;28;20028;-58
2021/05/05 09:04:22;;;;;;;51.38;47.08;;;17.30;99.90;;;;;;5072410;28;20029;-54
2021/05/05 09:06:58;;;;;;;51.13;46.83;;;17.20;99.90;;;;;;5072763;28;20016;-54
2021/05/05 09:09:44;;;;;;;47.33;43.25;;;17.20;99.90;;;;;;5072495;28;20569;-52
2021/05/05 09:12:17;;;;;;;47.10;42.95;;;17.20;99.90;;;;;;5072458;28;20020;-53
2021/05/05 09:14:58;;;;;;;48.03;44.13;;;17.20;99.90;;;;;;5072447;28;20353;-55
2021/05/05 09:17:31;;;;;;;48.08;44.25;;;17.20;99.90;;;;;;5072604;28;20025;-57
2021/05/05 09:20:13;;;;;;;49.53;45.50;;;17.20;99.90;;;;;;5072434;28;20037;-56
2021/05/05 09:22:44;;;;;;;45.70;41.60;;;17.30;99.90;;;;;;5072375;28;20099;-57
2021/05/05 09:25:19;;;;;;;44.05;40.35;;;17.30;99.90;;;;;;5071103;28;20029;-57
2021/05/05 09:28:16;;;;;;;45.67;41.63;;;17.30;99.90;;;;;;5072412;28;20021;-58
2021/05/05 09:30:51;;;;;;;47.70;43.78;;;17.30;99.90;;;;;;5071246;28;20034;-57
2021/05/05 09:33:33;;;;;;;50.17;46.42;;;17.30;99.90;;;;;;5072289;28;20541;-58
2021/05/05 09:36:05;;;;;;;49.05;45.03;;;17.20;99.90;;;;;;5075781;28;20051;-58
2021/05/05 09:38:45;;;;;;;48.78;44.85;;;17.20;99.90;;;;;;5075775;28;20024;-58
2021/05/05 09:41:26;;;;;;;46.50;42.78;;;17.20;99.90;;;;;;5075904;28;20074;-57
2021/05/05 09:44:00;;;;;;;45.33;41.63;;;17.20;99.90;;;;;;5075614;28;20047;-58
2021/05/05 09:49:35;;;;;;;48.90;44.92;;;17.20;99.90;;;;;;5075911;28;20094;-53
2021/05/05 09:52:10;;;;;;;48.40;44.67;;;17.10;99.90;;;;;;5075614;28;20542;-57
2021/05/05 09:54:52;;;;;;;47.92;43.95;;;17.20;99.90;;;;;;5075629;28;20027;-56
2021/05/05 09:57:21;;;;;;;48.92;44.88;;;17.20;99.90;;;;;;5075569;28;20043;-58
2021/05/05 10:00:11;;;;;;;49.28;44.90;;;17.20;99.90;;;;;;5075380;28;20111;-58
2021/05/05 10:02:47;;;;;;;56.65;52.55;;;17.20;99.90;;;;;;5075428;28;20035;-58
2021/05/05 10:05:29;;;;;;;55.83;51.72;;;17.20;99.90;;;;;;5075348;28;20481;-57
2021/05/05 10:08:03;;;;;;;55.72;51.63;;;17.20;99.90;;;;;;5075395;28;20389;-53
2021/05/05 10:10:38;;;;;;;55.83;51.70;;;17.20;99.90;;;;;;5073905;28;20477;-55
2021/05/05 10:13:07;;;;;;;48.58;44.63;;;17.10;99.90;;;;;;5075371;28;20496;-56
2021/05/05 10:15:39;;;;;;;50.20;46.22;;;17.10;99.90;;;;;;5075235;28;20056;-60
2021/05/05 10:18:11;;;;;;;49.53;45.53;;;17.10;99.90;;;;;;5075416;28;20029;-55
2021/05/05 10:20:43;;;;;;;55.28;51.17;;;17.10;99.90;;;;;;5075093;28;20025;-58
2021/05/05 10:23:10;;;;;;;50.17;46.10;;;17.10;99.90;;;;;;5074969;28;20158;-58
2021/05/05 10:25:42;;;;;;;56.05;52.00;;;17.00;99.90;;;;;;5074890;28;20034;-55
2021/05/05 10:28:10;;;;;;;51.50;47.70;;;17.10;99.90;;;;;;5075131;28;20457;-57
2021/05/05 10:30:42;;;;;;;48.00;44.20;;;17.10;99.90;;;;;;5074743;28;20074;-55
2021/05/05 10:33:20;;;;;;;47.33;43.67;;;17.00;99.90;;;;;;5074962;28;20523;-54
2021/05/05 10:35:48;;;;;;;56.55;52.28;;;17.00;99.90;;;;;;5074748;28;20036;-56
2021/05/05 10:38:37;;;;;;;54.33;50.45;;;17.00;99.90;;;;;;5074772;28;20550;-55
2021/05/05 10:41:09;;;;;;;53.35;49.35;;;16.90;99.90;;;;;;5074614;28;20024;-56
2021/05/05 10:43:47;;;;;;;55.92;51.67;;;17.00;99.90;;;;;;5074418;28;20443;-54
2021/05/05 10:46:26;;;;;;;55.55;51.55;;;16.90;99.90;;;;;;5072407;28;20033;-54
2021/05/05 10:49:15;;;;;;;57.58;53.38;;;16.90;99.90;;;;;;5074491;28;20146;-55
2021/05/05 10:51:47;;;;;;;55.53;51.42;;;16.80;99.90;;;;;;5074361;28;20024;-53
2021/05/05 10:54:16;;;;;;;52.80;48.92;;;16.80;99.90;;;;;;5074293;28;20028;-54
2021/05/05 10:57:04;;;;;;;52.92;48.83;;;16.80;99.90;;;;;;5074345;28;20105;-55
2021/05/05 10:59:51;;;;;;;53.17;49.58;;;16.80;99.90;;;;;;5073937;28;20025;-53
2021/05/05 11:03:01;;;;;;;51.22;47.72;;;16.80;99.90;;;;;;5074184;28;20523;-55
2021/05/05 11:05:38;;;;;;;52.92;48.83;;;16.80;99.90;;;;;;5074021;28;20068;-53
2021/05/05 11:08:26;;;;;;;54.05;49.88;;;16.90;99.90;;;;;;5074387;28;20024;-55
2021/05/05 11:10:57;;;;;;;54.00;49.78;;;16.90;99.90;;;;;;5074099;28;20496;-55
2021/05/05 11:13:24;;;;;;;53.22;49.33;;;16.90;99.90;;;;;;5073825;28;20024;-57
2021/05/05 11:15:52;;;;;;;52.47;48.65;;;16.90;99.90;;;;;;5073869;28;20044;-56
2021/05/05 11:18:34;;;;;;;53.20;49.33;;;16.90;99.90;;;;;;5073859;28;20389;-51
2021/05/05 11:21:05;;;;;;;54.17;50.40;;;16.90;99.90;;;;;;5073723;28;20033;-55
2021/05/05 11:23:35;;;;;;;58.38;54.10;;;16.80;99.90;;;;;;5073724;28;20072;-56
2021/05/05 11:26:32;;;;;;;55.90;51.95;;;16.80;99.90;;;;;;5073956;28;20442;-55
2021/05/05 11:29:02;;;;;;;55.92;51.80;;;16.80;99.90;;;;;;5072418;28;20074;-55
2021/05/05 11:31:48;;;;;;;;;;;16.80;99.90;;;;;;5072752;28;20511;-55
2021/05/05 11:34:24;;;;;;;57.90;53.65;;;16.80;99.90;;;;;;5073559;28;19954;-54
2021/05/05 11:37:14;;;;;;;58.58;54.28;;;16.70;99.90;;;;;;5073599;28;20037;-53
2021/05/05 11:39:58;;;;;;;54.15;49.78;;;16.70;99.90;;;;;;5073522;28;20052;-55
2021/05/05 11:42:33;;;;;;;53.13;48.88;;;16.70;99.90;;;;;;5073305;28;20036;-54
2021/05/05 11:45:04;;;;;;;54.65;50.45;;;16.70;99.90;;;;;;5073343;28;20032;-56
2021/05/05 11:47:36;;;;;;;54.25;50.05;;;16.70;99.90;;;;;;5073383;28;20012;-56
2021/05/05 11:50:06;;;;;;;54.42;50.22;;;16.60;99.90;;;;;;5073653;28;20074;-58
2021/05/05 11:52:39;;;;;;;61.40;56.30;;;16.60;99.90;;;;;;5073611;28;20048;-53
2021/05/05 11:55:09;;;;;;;57.42;53.00;;;16.50;99.90;;;;;;5073241;28;20020;-53
2021/05/05 11:57:52;;;;;;;56.05;51.85;;;16.50;99.90;;;;;;5073321;28;20047;-54
2021/05/05 12:00:29;;;;;;;59.53;55.13;;;16.50;99.90;;;;;;5073207;28;20021;-51
2021/05/05 12:03:15;;;;;;;59.75;55.58;;;16.50;99.90;;;;;;5073145;28;20067;-55
2021/05/05 12:05:45;;;;;;;58.13;53.90;;;16.60;99.90;;;;;;5073158;28;20469;-54
2021/05/05 12:08:21;;;;;;;59.90;55.63;;;16.60;99.90;;;;;;5073399;28;20438;-55
2021/05/05 12:10:54;;;;;;;60.25;56.15;;;16.60;99.90;;;;;;5073231;28;20047;-55
2021/05/05 12:13:33;;;;;;;58.88;54.45;;;16.60;99.90;;;;;;5073086;28;20448;-59
2021/05/05 12:16:10;;;;;;;57.90;53.45;;;16.50;99.90;;;;;;5073142;28;20052;-59
2021/05/05 12:18:46;;;;;;;56.88;52.42;;;16.50;99.90;;;;;;5073479;28;20081;-60
2021/05/05 12:21:13;;;;;;;57.42;52.47;;;16.50;99.90;;;;;;5072951;28;20028;-59
2021/05/05 12:23:49;;;;;;;59.67;55.13;;;16.50;99.90;;;;;;5072845;28;20051;-60
2021/05/05 12:26:19;;;;;;;59.78;55.25;;;16.40;99.90;;;;;;5071586;28;20029;-60
2021/05/05 12:28:48;;;;;;;57.70;53.33;;;16.40;99.90;;;;;;5072829;28;20107;-62
2021/05/05 12:31:21;;;;;;;56.80;52.40;;;16.30;99.90;;;;;;5072856;28;20028;-61
2021/05/05 12:33:49;;;;;;;58.67;54.10;;;16.30;99.90;;;;;;5073135;28;20024;-63
2021/05/05 12:36:23;;;;;;;61.28;57.05;;;16.20;99.90;;;;;;5071630;28;20435;-60
2021/05/05 12:38:53;;;;;;;60.63;56.08;;;16.20;99.90;;;;;;5073061;28;20017;-61
2021/05/05 12:41:25;;;;;;;61.53;56.92;;;16.20;99.90;;;;;;5072878;28;20020;-61
2021/05/05 12:43:56;;;;;;;65.35;61.13;;;16.20;99.90;;;;;;5072876;28;20033;-62
2021/05/05 12:46:24;;;;;;;;;;;16.20;99.90;;;;;;5072205;28;20036;-60
2021/05/05 12:48:53;;;;;;;59.08;54.72;;;16.20;99.90;;;;;;5072843;28;19905;-60
2021/05/05 12:51:26;;;;;;;60.80;56.55;;;16.20;99.90;;;;;;5072908;28;20028;-60
2021/05/05 12:53:59;;;;;;;61.83;57.38;;;16.10;99.90;;;;;;5073058;28;20048;-61
2021/05/05 12:56:44;;;;;;;60.58;56.03;;;16.10;99.90;;;;;;5072773;28;20555;-58
2021/05/05 12:59:25;;;;;;;60.53;56.05;;;16.10;99.90;;;;;;5072697;28;20032;-60
2021/05/05 13:02:10;;;;;;;59.45;55.05;;;16.10;99.90;;;;;;5071571;28;20106;-60
2021/05/05 13:04:46;;;;;;;56.30;52.15;;;16.10;99.90;;;;;;5071240;28;20040;-61
2021/05/05 13:07:31;;;;;;;56.25;52.15;;;16.00;99.90;;;;;;5072673;28;20024;-61